Braganca Paulista, Brazil
Current Conditions -  °F | °C
As of 5:00 PM on Monday 22 Dec 2014 (Local Time) from SBGR Reporting Station
Light Rain Light Rain  
Wind Chill: 81°   Ceiling: 3500
Heat Index: 84°   Visibility: 6mi
Dew Point: 70°   Wind: 9mph
Humidity: 70%   Direction: 340°NNW
Pressure: NA   Gusts: NA
Location:  22.95°S, 46.55°W
Report Text: SBGR 221900Z 34008KT 9999 -RA BKN035 SCT050TCU BKN100 27/21 Q1013
Loading
Personal Weather Stations






























Interactive Weather Map New forecast layout! Learn more

10-Day Weather Forecast

Advertisements
Track Severe Weather on mobile